createdAt,value
2023-03-20T00:01:52.622Z,6.62
2023-03-20T00:06:58.022Z,6.60
2023-03-20T00:12:08.362Z,6.59
2023-03-20T00:17:21.362Z,6.59
2023-03-20T00:22:25.199Z,6.59
2023-03-20T00:27:27.390Z,6.58
2023-03-20T00:32:31.368Z,6.59
2023-03-20T00:37:48.476Z,6.61
2023-03-20T00:43:14.103Z,6.63
2023-03-20T00:48:17.302Z,6.65
2023-03-20T00:53:39.410Z,6.71
2023-03-20T00:58:42.934Z,6.76
2023-03-20T01:03:45.771Z,6.82
2023-03-20T01:08:53.298Z,6.87
2023-03-20T01:13:58.337Z,6.92
2023-03-20T01:19:03.288Z,6.97
2023-03-20T01:24:05.712Z,7.01
2023-03-20T01:29:31.339Z,7.05
2023-03-20T01:34:40.684Z,7.11
2023-03-20T01:39:43.842Z,7.14
2023-03-20T01:44:47.395Z,7.16
2023-03-20T01:50:18.686Z,7.16
2023-03-20T01:55:22.985Z,7.18
2023-03-20T02:00:37.215Z,7.20
2023-03-20T02:05:44.737Z,7.21
2023-03-20T02:10:49.610Z,7.20
2023-03-20T02:16:04.695Z,7.18
2023-03-20T02:21:54.073Z,7.16
2023-03-20T02:26:56.359Z,7.17
2023-03-20T02:32:37.898Z,7.17
2023-03-20T02:38:09.961Z,7.19
2023-03-20T02:43:53.342Z,7.21
2023-03-20T02:49:11.570Z,7.23
2023-03-20T02:54:31.213Z,7.24
2023-03-20T03:00:04.558Z,7.23
2023-03-20T03:05:19.677Z,7.22
2023-03-20T03:10:27.368Z,7.21
2023-03-20T03:15:40.282Z,7.19
2023-03-20T03:21:05.987Z,7.16
2023-03-20T03:26:31.954Z,7.12
2023-03-20T03:31:44.643Z,7.07
2023-03-20T03:37:07.659Z,7.00
2023-03-20T03:42:34.645Z,6.93
2023-03-20T03:47:47.198Z,6.87
2023-03-20T03:52:52.963Z,6.83
2023-03-20T03:58:03.800Z,6.79
2023-03-20T04:03:08.950Z,6.76
2023-03-20T04:08:21.993Z,6.74
2023-03-20T04:13:26.528Z,6.72
2023-03-20T04:18:29.447Z,6.71
2023-03-20T04:23:33.275Z,6.69
2023-03-20T04:28:39.226Z,6.65
2023-03-20T04:33:51.654Z,6.60
2023-03-20T04:39:09.186Z,6.56
2023-03-20T04:44:11.421Z,6.57
2023-03-20T04:49:20.547Z,6.58
2023-03-20T04:54:26.747Z,6.58
2023-03-20T04:59:29.596Z,6.60
2023-03-20T05:04:32.140Z,6.64
2023-03-20T05:09:35.327Z,6.70
2023-03-20T05:14:40.373Z,6.77
2023-03-20T05:20:05.451Z,6.85
2023-03-20T05:25:19.688Z,6.88
2023-03-20T05:30:38.301Z,6.91
2023-03-20T05:36:00.724Z,6.94
2023-03-20T05:41:36.762Z,7.03
2023-03-20T05:47:02.501Z,7.08
2023-03-20T05:52:42.821Z,7.15
2023-03-20T05:58:05.598Z,7.18
2023-03-20T06:03:34.055Z,7.23
2023-03-20T06:08:43.438Z,7.32
2023-03-20T06:13:50.833Z,7.48
2023-03-20T06:18:55.685Z,7.65
2023-03-20T06:23:59.959Z,7.79
2023-03-20T06:29:04.756Z,7.90
2023-03-20T06:34:14.038Z,7.98
2023-03-20T06:39:19.547Z,8.00
2023-03-20T06:44:22.895Z,8.03
2023-03-20T06:49:53.004Z,8.11
2023-03-20T06:54:58.248Z,8.25
2023-03-20T07:00:05.905Z,8.41
2023-03-20T07:05:12.406Z,8.57
2023-03-20T07:10:14.584Z,8.73
2023-03-20T07:15:26.756Z,8.92
2023-03-20T07:20:31.855Z,9.06
2023-03-20T07:25:55.532Z,9.23
2023-03-20T07:31:00.756Z,9.36
2023-03-20T07:36:28.181Z,9.54
2023-03-20T07:41:51.584Z,9.77
2023-03-20T07:47:08.348Z,9.88
2023-03-20T07:52:14.262Z,9.93
2023-03-20T07:57:20.872Z,9.97
2023-03-20T08:02:29.985Z,10.04
2023-03-20T08:07:43.794Z,10.22
2023-03-20T08:12:49.007Z,10.40
2023-03-20T08:17:51.926Z,10.54
2023-03-20T08:22:54.041Z,10.66
2023-03-20T08:27:56.008Z,10.85
2023-03-20T08:32:59.109Z,11.04
2023-03-20T08:38:07.118Z,11.16
2023-03-20T08:43:15.423Z,11.22
2023-03-20T08:48:18.175Z,11.29
2023-03-20T08:53:23.690Z,11.35
2023-03-20T08:58:29.442Z,11.39
2023-03-20T09:03:31.850Z,11.48
2023-03-20T09:08:38.213Z,11.68
2023-03-20T09:13:41.064Z,11.82
2023-03-20T09:18:44.218Z,11.87
2023-03-20T09:23:48.580Z,12.07
2023-03-20T09:28:57.378Z,12.31
2023-03-20T09:34:15.470Z,12.47
2023-03-20T09:39:19.242Z,12.65
2023-03-20T09:44:51.371Z,12.81
2023-03-20T09:50:10.371Z,13.08
2023-03-20T09:55:41.764Z,13.36
2023-03-20T10:00:49.059Z,13.75
2023-03-20T10:06:29.769Z,14.16
2023-03-20T10:12:04.762Z,14.30
2023-03-20T10:17:40.054Z,14.21
2023-03-20T10:22:53.534Z,14.08
2023-03-20T10:28:11.285Z,13.98
2023-03-20T10:33:33.191Z,13.91
2023-03-20T10:39:23.437Z,13.91
2023-03-20T10:44:38.508Z,13.96
2023-03-20T10:50:00.365Z,13.91
2023-03-20T10:55:20.878Z,13.79
2023-03-20T11:00:28.638Z,13.82
2023-03-20T11:05:37.008Z,14.08
2023-03-20T11:10:43.465Z,14.37
2023-03-20T11:15:49.144Z,14.72
2023-03-20T11:20:57.380Z,15.08
2023-03-20T11:26:07.248Z,15.52
2023-03-20T11:31:20.069Z,15.85
2023-03-20T11:36:40.463Z,15.99
2023-03-20T11:41:50.071Z,15.97
2023-03-20T11:47:19.706Z,16.04
2023-03-20T11:52:28.834Z,16.06
2023-03-20T11:57:46.822Z,16.06
2023-03-20T12:02:55.500Z,16.23
2023-03-20T12:08:16.664Z,16.31
2023-03-20T12:13:27.644Z,16.26
2023-03-20T12:18:39.533Z,16.09
2023-03-20T12:23:51.485Z,15.87
2023-03-20T12:29:05.363Z,15.66
2023-03-20T12:34:28.158Z,15.51
2023-03-20T12:39:41.364Z,15.32
2023-03-20T12:45:02.880Z,15.05
2023-03-20T12:50:28.645Z,14.74
2023-03-20T12:56:12.013Z,14.44
2023-03-20T13:01:32.064Z,14.32
2023-03-20T13:06:48.897Z,14.28
2023-03-20T13:12:26.303Z,14.37
2023-03-20T13:18:00.566Z,14.44
2023-03-20T13:23:34.727Z,14.42
2023-03-20T13:29:29.569Z,14.43
2023-03-20T13:35:21.806Z,14.35
2023-03-20T13:40:33.757Z,14.34
2023-03-20T13:45:48.718Z,14.30
2023-03-20T13:51:26.297Z,14.20
2023-03-20T13:57:19.745Z,14.17
2023-03-20T14:02:55.246Z,14.15
2023-03-20T14:08:30.753Z,14.08
2023-03-20T14:13:34.985Z,13.96
2023-03-20T14:18:38.531Z,13.88
2023-03-20T14:23:49.278Z,13.77
2023-03-20T14:29:19.726Z,13.66
2023-03-20T14:35:05.736Z,13.64
2023-03-20T14:40:31.787Z,13.62
2023-03-20T14:45:58.809Z,13.64
2023-03-20T14:51:37.939Z,13.70
2023-03-20T14:56:40.842Z,13.72
2023-03-20T15:01:50.959Z,13.77
2023-03-20T15:07:07.959Z,13.79
2023-03-20T15:12:14.216Z,13.76
2023-03-20T15:17:34.993Z,13.81
2023-03-20T15:22:59.762Z,13.82
2023-03-20T15:28:06.213Z,13.87
2023-03-20T15:33:20.477Z,13.88
2023-03-20T15:38:34.543Z,13.88
2023-03-20T15:43:40.446Z,13.91
2023-03-20T15:48:50.404Z,13.98
2023-03-20T15:53:52.948Z,14.02
2023-03-20T15:58:57.394Z,14.07
2023-03-20T16:04:00.092Z,14.15
2023-03-20T16:09:06.857Z,14.18
2023-03-20T16:14:25.066Z,14.07
2023-03-20T16:19:31.372Z,13.84
2023-03-20T16:24:39.375Z,13.56
2023-03-20T16:29:49.998Z,13.27
2023-03-20T16:34:57.786Z,13.05
2023-03-20T16:40:35.047Z,12.86
2023-03-20T16:45:56.749Z,12.63
2023-03-20T16:51:13.693Z,12.44
2023-03-20T16:56:29.734Z,12.27
2023-03-20T17:01:33.334Z,12.14
2023-03-20T17:06:46.135Z,12.03
2023-03-20T17:12:03.474Z,11.92
2023-03-20T17:17:12.755Z,11.81
2023-03-20T17:22:24.111Z,11.75
2023-03-20T17:27:27.708Z,11.72
2023-03-20T17:32:33.107Z,11.66
2023-03-20T17:37:38.589Z,11.59
2023-03-20T17:42:40.820Z,11.53
2023-03-20T17:47:45.664Z,11.47
2023-03-20T17:52:50.661Z,11.40
2023-03-20T17:57:55.494Z,11.31
2023-03-20T18:02:57.760Z,11.23
2023-03-20T18:08:30.886Z,11.15
2023-03-20T18:13:35.688Z,11.06
2023-03-20T18:18:38.154Z,10.98
2023-03-20T18:23:45.589Z,10.91
2023-03-20T18:28:52.825Z,10.85
2023-03-20T18:33:57.246Z,10.83
2023-03-20T18:39:05.832Z,10.80
2023-03-20T18:44:08.149Z,10.76
2023-03-20T18:49:22.647Z,10.74
2023-03-20T18:54:27.439Z,10.73
2023-03-20T18:59:30.601Z,10.69
2023-03-20T19:04:35.801Z,10.61
2023-03-20T19:09:38.065Z,10.54
2023-03-20T19:15:00.481Z,10.49
2023-03-20T19:20:02.815Z,10.45
2023-03-20T19:25:05.919Z,10.42
2023-03-20T19:30:38.157Z,10.40
2023-03-20T19:36:03.372Z,10.37
2023-03-20T19:41:08.701Z,10.33
2023-03-20T19:46:28.474Z,10.26
2023-03-20T19:51:40.858Z,10.22
2023-03-20T19:56:43.373Z,10.18
2023-03-20T20:01:47.332Z,10.11
2023-03-20T20:06:55.651Z,10.00
2023-03-20T20:12:04.377Z,9.89
2023-03-20T20:17:07.188Z,9.79
2023-03-20T20:22:29.535Z,9.75
2023-03-20T20:27:32.368Z,9.73
2023-03-20T20:32:36.541Z,9.70
2023-03-20T20:43:10.496Z,9.69
2023-03-20T20:48:13.350Z,9.67
2023-03-20T20:53:15.688Z,9.65
2023-03-20T20:58:18.873Z,9.61
2023-03-20T21:03:21.205Z,9.59
2023-03-20T21:08:26.199Z,9.56
2023-03-20T21:13:28.322Z,9.52
2023-03-20T21:18:31.193Z,9.47
2023-03-20T21:23:33.751Z,9.43
2023-03-20T21:28:37.012Z,9.37
2023-03-20T21:33:38.956Z,9.32
2023-03-20T21:44:04.091Z,9.20
2023-03-20T21:50:01.530Z,9.16
2023-03-20T22:06:33.266Z,9.09
2023-03-20T22:12:01.835Z,9.06
2023-03-20T22:17:40.765Z,9.01
2023-03-20T22:33:41.364Z,8.95
2023-03-20T22:39:05.141Z,8.97
2023-03-20T22:44:50.019Z,8.99
2023-03-20T22:49:19.854Z,9.00
2023-03-20T22:54:26.456Z,8.98
2023-03-20T22:59:29.051Z,8.94
2023-03-20T23:04:33.777Z,8.93
2023-03-20T23:09:36.574Z,8.93
2023-03-20T23:14:46.203Z,8.96
2023-03-20T23:20:10.980Z,8.95
2023-03-20T23:25:23.808Z,8.95
2023-03-20T23:30:44.363Z,8.91
2023-03-20T23:36:01.257Z,8.83
2023-03-20T23:41:19.133Z,8.82
2023-03-20T23:46:30.039Z,8.81
2023-03-20T23:51:46.331Z,8.79
2023-03-20T23:57:00.968Z,8.78
